Time;durP1;ratioP1;P1;durP2;ratioP2;P2;SDS_P1;SDS_P2;PMS_P1;PMS_P2;Temp;Humidity;BMP_temperature;BMP_pressure;BME280_temperature;BME280_humidity;BME280_pressure;Samples;Min_cycle;Max_cycle;Signal;HPM_P1;HPM_P2
2022/02/25 00:00:09;;;;;;;13.82;2.58;;;;;;;8.65;59.32;100067.31;4825534;29;122619;-82
2022/02/25 00:02:38;;;;;;;12.10;2.35;;;;;;;8.56;59.39;100074.28;4815925;29;119476;-82
2022/02/25 00:05:05;;;;;;;15.50;2.88;;;;;;;8.71;59.91;100098.31;4845364;28;120320;-82
2022/02/25 00:07:31;;;;;;;13.93;2.72;;;;;;;8.84;59.85;100112.63;4822246;29;119513;-83
2022/02/25 00:09:57;;;;;;;16.88;3.00;;;;;;;8.42;59.54;100058.44;4814953;29;122296;-82
2022/02/25 00:12:26;;;;;;;17.67;3.10;;;;;;;8.57;59.80;100094.19;4846893;28;119353;-84
2022/02/25 00:14:54;;;;;;;18.13;2.75;;;;;;;8.46;60.29;100078.19;4839601;29;119892;-82
2022/02/25 00:17:29;;;;;;;22.05;3.25;;;;;;;8.65;60.57;100111.06;4831909;29;122163;-83
2022/02/25 00:19:55;;;;;;;18.23;3.35;;;;;;;8.65;61.25;100094.66;4812519;29;121036;-83
2022/02/25 00:22:24;;;;;;;19.95;3.63;;;;;;;8.48;60.77;100069.53;4815144;29;120499;-82
2022/02/25 00:24:53;;;;;;;16.20;3.58;;;;;;;8.65;59.75;100089.94;4831088;29;119430;-83
2022/02/25 00:27:19;;;;;;;22.15;3.60;;;;;;;8.74;61.18;100103.63;4828720;29;119656;-82
2022/02/25 00:29:45;;;;;;;19.60;3.92;;;;;;;8.81;60.76;100119.78;4812664;29;121918;-83
2022/02/25 00:32:14;;;;;;;24.42;4.53;;;;;;;8.40;59.91;100060.09;4814267;29;122793;-82
2022/02/25 00:34:40;;;;;;;23.40;4.35;;;;;;;8.66;59.83;100104.38;4813688;29;121652;-82
2022/02/25 00:37:06;;;;;;;26.80;3.72;;;;;;;8.75;60.75;100116.09;4810689;29;120706;-83
2022/02/25 00:39:32;;;;;;;21.48;4.20;;;;;;;8.75;60.65;100123.53;4815595;29;120293;-81
2022/02/25 00:41:58;;;;;;;19.80;4.03;;;;;;;8.60;60.33;100104.22;4845631;28;120381;-81
2022/02/25 00:44:27;;;;;;;21.42;4.35;;;;;;;8.64;60.28;100117.72;4811040;29;119388;-82
2022/02/25 00:47:07;;;;;;;21.60;3.60;;;;;;;8.48;60.79;100094.13;4825411;29;120343;-82
2022/02/25 00:49:43;;;;;;;24.38;3.95;;;;;;;8.39;60.38;100089.41;4830964;29;119780;-82
2022/02/25 00:52:12;;;;;;;20.73;3.97;;;;;;;8.44;59.98;100096.25;4795084;29;121247;-82
2022/02/25 00:54:43;;;;;;;23.10;4.07;;;;;;;8.50;60.42;100092.47;4812086;29;119424;-82
2022/02/25 00:57:09;;;;;;;22.17;3.97;;;;;;;8.57;62.73;100094.94;4828188;29;119474;-82
2022/02/25 00:59:35;;;;;;;48.30;17.85;;;;;;;8.79;62.77;100132.38;4813242;29;120543;-82
2022/02/25 01:02:01;;;;;;;26.92;8.63;;;;;;;8.80;63.08;100131.16;4810919;29;119004;-80
2022/02/25 01:04:28;;;;;;;28.10;8.77;;;;;;;8.83;61.64;100150.16;4802730;29;121918;-84
2022/02/25 01:06:55;;;;;;;41.15;13.57;;;;;;;8.79;61.97;100143.31;4823813;29;126609;-82
2022/02/25 01:09:24;;;;;;;40.15;13.68;;;;;;;9.05;61.27;100150.09;4816232;29;121167;-83
2022/02/25 01:11:53;;;;;;;21.52;4.80;;;;;;;9.29;63.96;100191.34;4819062;29;120406;-83
2022/02/25 01:14:19;;;;;;;36.53;9.98;;;;;;;8.93;63.60;100129.81;4818279;29;119885;-82
2022/02/25 01:16:45;;;;;;;23.33;5.20;;;;;;;9.14;63.29;100154.81;4820657;29;119318;-83
2022/02/25 01:19:18;;;;;;;30.10;6.30;;;;;;;9.50;64.00;100203.38;4813093;28;121912;-82
2022/02/25 01:22:06;;;;;;;23.83;4.53;;;;;;;9.28;63.67;100156.22;4813018;28;120217;-82
2022/02/25 01:24:32;;;;;;;31.60;6.47;;;;;;;9.30;63.60;100153.78;4820273;29;122378;-82
2022/02/25 01:26:58;;;;;;;25.02;4.50;;;;;;;9.40;62.65;100161.53;4834113;29;120301;-82
2022/02/25 01:29:23;;;;;;;24.08;4.22;;;;;;;9.29;62.67;100139.34;4836632;29;119300;-82
2022/02/25 01:31:49;;;;;;;22.48;4.30;;;;;;;9.10;62.57;100111.19;4834332;29;120117;-80
2022/02/25 01:34:37;;;;;;;22.90;4.15;;;;;;;9.54;62.65;100182.84;4820905;28;120861;-82
2022/02/25 01:37:04;;;;;;;28.52;4.68;;;;;;;9.41;62.62;100165.78;4835390;29;119369;-83
2022/02/25 01:39:30;;;;;;;26.27;4.78;;;;;;;9.45;62.09;100180.09;4819217;29;123622;-81
2022/02/25 01:41:56;;;;;;;25.60;4.57;;;;;;;9.35;62.25;100169.59;4838235;29;119436;-81
2022/02/25 01:44:29;;;;;;;29.63;4.90;;;;;;;9.45;62.67;100185.56;4823522;28;119318;-82
2022/02/25 01:47:05;;;;;;;27.23;4.57;;;;;;;9.69;64.14;100218.59;4806922;29;123155;-80
2022/02/25 01:49:33;;;;;;;22.65;4.38;;;;;;;9.45;63.00;100171.13;4824947;29;119448;-82
2022/02/25 01:52:03;;;;;;;18.40;4.13;;;;;;;9.32;63.48;100143.13;4825978;29;125679;-81
2022/02/25 01:54:30;;;;;;;15.73;3.08;;;;;;;9.45;61.48;100168.38;4852964;28;119213;-81
2022/02/25 01:57:09;;;;;;;14.05;3.25;;;;;;;9.54;61.70;100195.78;4824543;28;120757;-81
2022/02/25 01:59:37;;;;;;;19.50;3.05;;;;;;;9.40;63.59;100172.50;4824522;29;120114;-82
2022/02/25 02:02:06;;;;;;;15.63;2.92;;;;;;;9.44;63.48;100177.81;4824256;28;118901;-82
2022/02/25 02:04:33;;;;;;;15.85;2.78;;;;;;;9.16;62.76;100131.25;4822655;29;120557;-82
2022/02/25 02:07:04;;;;;;;13.10;3.13;;;;;;;9.15;61.52;100137.94;4834000;29;119973;-82
2022/02/25 02:09:32;;;;;;;14.63;3.47;;;;;;;9.16;61.35;100144.16;4819486;29;119397;-81
2022/02/25 02:12:04;;;;;;;18.42;3.65;;;;;;;9.01;61.94;100141.25;4823357;28;119344;-82
2022/02/25 02:14:30;;;;;;;20.95;3.53;;;;;;;8.90;62.96;100132.72;4811004;29;122875;-81
2022/02/25 02:16:58;;;;;;;20.02;4.00;;;;;;;9.08;62.08;100165.59;4808370;29;122488;-82
2022/02/25 02:19:25;;;;;;;20.63;3.95;;;;;;;9.08;63.53;100168.31;4805290;29;122702;-81
2022/02/25 02:21:54;;;;;;;22.42;4.45;;;;;;;9.07;64.63;100147.66;4806266;29;119405;-81
2022/02/25 02:24:26;;;;;;;27.75;5.18;;;;;;;9.39;64.37;100178.41;4840827;28;121742;-81
2022/02/25 02:26:56;;;;;;;23.65;4.10;;;;;;;9.45;63.43;100173.84;4808943;29;122868;-82
2022/02/25 02:29:25;;;;;;;24.25;4.32;;;;;;;9.23;62.42;100139.19;4836014;28;119583;-81
2022/02/25 02:31:53;;;;;;;30.13;5.40;;;;;;;9.35;62.34;100144.97;4825112;28;121781;-81
2022/02/25 02:34:19;;;;;;;26.63;4.68;;;;;;;9.28;62.68;100156.22;4842239;28;120165;-81
2022/02/25 02:36:47;;;;;;;26.95;4.70;;;;;;;9.76;63.89;100225.78;4842992;28;119292;-82
2022/02/25 02:39:14;;;;;;;35.25;5.25;;;;;;;9.60;64.81;100193.97;4837819;28;121094;-81
2022/02/25 02:41:40;;;;;;;28.10;5.57;;;;;;;9.43;64.08;100160.63;4826841;28;121929;-82
2022/02/25 02:44:17;;;;;;;27.45;4.50;;;;;;;9.54;63.91;100171.16;4823630;28;122081;-81
2022/02/25 02:46:46;;;;;;;30.90;5.82;;;;;;;9.80;63.69;100186.06;4836550;28;120133;-81
2022/02/25 02:49:13;;;;;;;29.38;5.63;;;;;;;9.72;62.99;100170.41;4826566;29;119877;-80
2022/02/25 02:51:51;;;;;;;34.13;6.32;;;;;;;9.49;62.87;100147.13;4834753;29;120039;-80
2022/02/25 02:54:19;;;;;;;39.03;5.57;;;;;;;9.57;63.50;100158.53;4819656;28;123156;-81
2022/02/25 02:56:49;;;;;;;37.75;6.28;;;;;;;9.65;63.35;100157.75;4819802;28;119413;-81
2022/02/25 02:59:15;;;;;;;41.05;6.43;;;;;;;9.90;62.60;100195.03;4841392;29;119366;-81
2022/02/25 03:01:45;;;;;;;36.28;6.00;;;;;;;9.50;63.03;100140.44;4838347;28;118802;-81
2022/02/25 03:04:13;;;;;;;36.25;5.80;;;;;;;9.61;63.80;100150.91;4822480;29;122109;-81
2022/02/25 03:06:42;;;;;;;32.90;5.80;;;;;;;9.52;63.95;100132.50;4805787;29;123100;-81
2022/02/25 03:09:08;;;;;;;32.47;5.30;;;;;;;9.88;65.35;100185.75;4820710;29;119638;-81
2022/02/25 03:11:34;;;;;;;34.50;6.13;;;;;;;9.71;64.96;100166.16;4836546;28;119326;-81
2022/02/25 03:14:00;;;;;;;32.92;5.63;;;;;;;9.75;64.16;100173.00;4812746;29;123202;-81
2022/02/25 03:16:26;;;;;;;30.10;5.35;;;;;;;10.26;65.16;100227.19;4821000;29;119641;-85
2022/02/25 03:18:55;;;;;;;28.85;5.60;;;;;;;10.13;63.43;100204.59;4803689;29;118885;-84
2022/02/25 03:21:21;;;;;;;22.33;5.00;;;;;;;9.96;63.33;100165.06;4799226;29;119518;-85
2022/02/25 03:23:46;;;;;;;27.00;4.68;;;;;;;10.03;62.59;100172.97;4794244;29;121643;-84
2022/02/25 03:26:17;;;;;;;23.67;5.05;;;;;;;9.92;61.99;100158.97;4795994;29;123226;-84
2022/02/25 03:28:45;;;;;;;28.33;5.05;;;;;;;9.96;62.25;100165.06;4814673;29;119894;-86
2022/02/25 03:31:11;;;;;;;19.85;4.40;;;;;;;10.12;63.31;100197.59;4797486;29;119588;-84
2022/02/25 03:33:50;;;;;;;35.60;5.83;;;;;;;10.16;62.09;100211.91;4798796;29;120183;-85
2022/02/25 03:36:18;;;;;;;32.20;6.75;;;;;;;9.81;62.02;100171.16;4797147;29;119417;-83
2022/02/25 03:38:49;;;;;;;30.63;5.43;;;;;;;9.99;62.25;100222.44;4799374;29;119322;-84
2022/02/25 03:41:20;;;;;;;31.58;5.47;;;;;;;9.91;61.53;100212.22;4820576;29;122892;-84
2022/02/25 03:43:56;;;;;;;23.30;4.32;;;;;;;9.77;62.31;100186.97;4818336;29;119195;-81
2022/02/25 03:46:24;;;;;;;20.55;4.18;;;;;;;10.16;62.91;100253.03;4818123;29;120117;-82
2022/02/25 03:48:50;;;;;;;21.17;4.20;;;;;;;9.73;63.30;100191.84;4805872;29;120381;-80
2022/02/25 03:51:17;;;;;;;18.35;4.38;;;;;;;9.83;62.71;100193.38;4818482;29;119523;-81
2022/02/25 03:53:43;;;;;;;18.50;3.50;;;;;;;9.97;61.60;100219.41;4800310;29;120179;-81
2022/02/25 03:56:12;;;;;;;21.13;3.70;;;;;;;9.84;62.04;100197.63;4797362;29;119816;-81
2022/02/25 03:58:38;;;;;;;16.58;3.85;;;;;;;10.18;61.46;100250.63;4813954;29;121989;-81
2022/02/25 04:01:04;;;;;;;24.23;3.97;;;;;;;10.18;60.38;100256.09;4784766;29;122897;-81
2022/02/25 04:03:29;;;;;;;22.10;3.65;;;;;;;10.14;60.54;100252.72;4806805;29;119591;-81
2022/02/25 04:05:55;;;;;;;23.33;4.20;;;;;;;10.07;60.33;100247.56;4808094;29;123788;-81
2022/02/25 04:08:21;;;;;;;20.58;3.95;;;;;;;10.09;60.72;100254.09;4812896;29;119975;-81
2022/02/25 04:10:46;;;;;;;23.58;4.15;;;;;;;10.00;61.33;100254.09;4808904;29;120972;-80
2022/02/25 04:13:14;;;;;;;23.05;4.75;;;;;;;9.95;60.78;100245.75;4811638;29;122519;-81
2022/02/25 04:15:40;;;;;;;23.05;5.15;;;;;;;9.99;61.40;100251.81;4812440;29;119458;-82
2022/02/25 04:18:05;;;;;;;21.15;4.38;;;;;;;9.94;63.19;100244.97;4831022;29;119439;-80
2022/02/25 04:20:31;;;;;;;22.75;4.47;;;;;;;9.98;60.82;100256.53;4825159;29;120002;-81
2022/02/25 04:22:57;;;;;;;22.63;4.20;;;;;;;10.00;60.37;100267.81;4805912;29;119737;-80
2022/02/25 04:25:23;;;;;;;19.10;3.95;;;;;;;9.97;60.25;100270.69;4810123;29;121670;-80
2022/02/25 04:27:48;;;;;;;22.63;4.55;;;;;;;9.90;60.58;100255.31;4806879;29;119989;-80
2022/02/25 04:30:14;;;;;;;28.08;5.03;;;;;;;9.64;59.87;100221.94;4844233;28;119417;-80
2022/02/25 04:32:40;;;;;;;28.67;5.00;;;;;;;9.91;59.95;100267.03;4804963;29;120211;-80
2022/02/25 04:35:06;;;;;;;29.17;5.43;;;;;;;9.88;61.84;100257.72;4817635;29;120359;-80
2022/02/25 04:37:31;;;;;;;31.38;5.97;;;;;;;9.89;61.63;100261.22;4813868;29;119587;-80
2022/02/25 04:39:57;;;;;;;30.92;5.70;;;;;;;9.90;62.05;100254.53;4822934;29;122730;-81
2022/02/25 04:42:24;;;;;;;26.92;5.22;;;;;;;9.90;61.39;100262.75;4830609;29;119257;-81
2022/02/25 04:44:49;;;;;;;31.50;6.13;;;;;;;9.81;60.84;100250.59;4810733;29;120960;-80
2022/02/25 04:47:15;;;;;;;30.70;6.18;;;;;;;9.90;61.10;100262.75;4794455;29;122674;-80
2022/02/25 04:49:40;;;;;;;32.78;5.68;;;;;;;9.91;61.52;100245.09;4809810;29;121764;-81
2022/02/25 04:52:06;;;;;;;29.38;5.88;;;;;;;9.93;61.17;100259.88;4817148;29;122040;-80
2022/02/25 04:54:32;;;;;;;31.08;5.57;;;;;;;9.91;60.47;100248.59;4841563;28;119723;-80
2022/02/25 04:56:58;;;;;;;31.90;5.75;;;;;;;9.98;61.24;100259.28;4821891;29;120645;-80
2022/02/25 04:59:24;;;;;;;43.60;6.28;;;;;;;10.02;61.42;100270.84;4815769;29;121726;-81
2022/02/25 05:01:49;;;;;;;31.10;5.32;;;;;;;10.00;62.70;100272.53;4822296;28;119645;-81
2022/02/25 05:04:15;;;;;;;20.88;4.88;;;;;;;10.05;61.64;100260.94;4819616;29;119209;-80
2022/02/25 05:06:41;;;;;;;29.77;5.30;;;;;;;10.00;63.50;100245.88;4818796;29;119923;-81
2022/02/25 05:09:07;;;;;;;22.90;5.07;;;;;;;10.08;62.58;100263.53;4828413;29;119621;-80
2022/02/25 05:11:32;;;;;;;25.23;4.85;;;;;;;10.00;61.48;100258.81;4835331;29;122637;-80
2022/02/25 05:13:58;;;;;;;26.95;5.85;;;;;;;10.01;61.74;100279.53;4824444;28;119629;-80
2022/02/25 05:21:52;;;;;;;;;;;;;;;9.82;62.28;100270.53;4827364;28;118850;-80
2022/02/25 05:24:18;;;;;;;30.88;6.47;;;;;;;9.73;64.36;100259.56;4842617;28;121008;-81
2022/02/25 05:26:44;;;;;;;26.75;6.75;;;;;;;9.88;64.20;100278.88;4807833;29;120720;-80
2022/02/25 05:29:10;;;;;;;33.78;6.18;;;;;;;9.60;65.38;100245.22;4829656;28;118580;-80
2022/02/25 05:31:37;;;;;;;30.38;6.18;;;;;;;9.74;64.49;100234.47;4839231;29;121763;-81
2022/02/25 05:34:03;;;;;;;28.30;6.07;;;;;;;10.03;64.40;100266.13;4833258;28;119952;-82
2022/02/25 05:36:31;;;;;;;40.33;7.30;;;;;;;10.10;63.62;100263.06;4813621;29;119430;-80
2022/02/25 05:39:00;;;;;;;31.98;6.57;;;;;;;10.22;62.85;100259.47;4814898;29;120219;-85
2022/02/25 05:41:28;;;;;;;35.42;6.72;;;;;;;10.22;61.93;100259.47;4794701;29;119080;-83
2022/02/25 05:43:54;;;;;;;34.53;6.47;;;;;;;9.98;63.62;100239.34;4801011;29;119538;-83
2022/02/25 05:46:24;;;;;;;31.70;6.60;;;;;;;10.01;63.73;100235.69;4801088;29;120136;-84
2022/02/25 05:48:50;;;;;;;32.75;7.15;;;;;;;9.91;63.78;100209.50;4800386;29;119412;-83
2022/02/25 05:51:15;;;;;;;37.75;7.60;;;;;;;10.34;63.72;100293.41;4817079;29;119425;-83
2022/02/25 05:53:41;;;;;;;41.15;7.40;;;;;;;10.22;63.96;100261.44;4800632;29;119373;-81
2022/02/25 05:56:07;;;;;;;34.47;6.97;;;;;;;10.28;63.31;100267.84;4800643;29;121539;-85
2022/02/25 05:58:32;;;;;;;39.65;7.85;;;;;;;10.44;64.23;100286.72;4799600;29;120525;-83
2022/02/25 06:00:58;;;;;;;34.40;6.75;;;;;;;10.42;64.88;100267.22;4800264;29;119336;-84
2022/02/25 06:03:23;;;;;;;35.75;7.15;;;;;;;10.52;63.10;100285.16;4817168;29;121905;-82
2022/02/25 06:05:49;;;;;;;36.33;6.97;;;;;;;10.49;64.31;100275.13;4797911;29;122649;-84
2022/02/25 06:08:15;;;;;;;33.83;6.85;;;;;;;10.56;63.70;100283.03;4803867;29;120125;-85
2022/02/25 06:10:40;;;;;;;39.53;6.85;;;;;;;10.50;63.29;100262.19;4799870;29;120113;-83
2022/02/25 06:13:06;;;;;;;31.55;6.25;;;;;;;10.47;61.46;100280.31;4803166;29;120336;-82
2022/02/25 06:15:32;;;;;;;28.70;5.35;;;;;;;10.37;61.10;100292.50;4797518;29;122294;-84
2022/02/25 06:17:58;;;;;;;22.25;5.05;;;;;;;10.26;62.83;100267.53;4801327;29;119537;-84
2022/02/25 06:20:23;;;;;;;23.95;4.90;;;;;;;10.30;62.68;100282.59;4799170;29;120657;-83
2022/02/25 06:22:49;;;;;;;25.55;5.78;;;;;;;10.31;63.58;100284.13;4783249;29;122036;-82
2022/02/25 06:25:16;;;;;;;25.25;5.05;;;;;;;10.36;61.69;100291.72;4799228;29;122201;-84
2022/02/25 06:27:42;;;;;;;23.15;5.38;;;;;;;10.35;61.79;100290.22;4813765;29;119441;-83
2022/02/25 06:30:10;;;;;;;28.52;5.68;;;;;;;10.29;61.57;100274.84;4812631;29;119628;-85
2022/02/25 06:32:36;;;;;;;30.02;6.15;;;;;;;10.31;62.16;100270.41;4800552;29;120447;-85
2022/02/25 06:35:02;;;;;;;30.88;6.10;;;;;;;10.36;61.79;100280.75;4802004;29;120045;-85
2022/02/25 06:37:28;;;;;;;32.70;6.80;;;;;;;10.34;61.50;100294.16;4798271;29;121860;-85
2022/02/25 06:39:57;;;;;;;34.13;6.28;;;;;;;10.32;63.33;100290.38;4798197;29;119714;-82
2022/02/25 06:42:23;;;;;;;37.20;7.20;;;;;;;10.24;63.08;100272.72;4799320;29;119551;-83
2022/02/25 06:44:50;;;;;;;33.28;6.03;;;;;;;10.26;64.47;100312.16;4796529;29;122037;-82
2022/02/25 06:47:17;;;;;;;29.95;6.60;;;;;;;10.26;64.01;100328.59;4807809;29;119437;-80
2022/02/25 06:49:43;;;;;;;15.88;3.22;;;;;;;10.23;62.87;100336.97;4816105;29;119550;-83
2022/02/25 06:52:09;;;;;;;10.05;2.30;;;;;;;10.05;61.54;100332.19;4797385;29;120393;-81
2022/02/25 06:54:34;;;;;;;5.85;1.50;;;;;;;9.92;60.06;100350.72;4789336;29;120053;-80
2022/02/25 06:57:00;;;;;;;15.25;2.90;;;;;;;9.70;62.11;100320.69;4811005;29;120369;-80
2022/02/25 06:59:25;;;;;;;13.75;3.00;;;;;;;9.67;63.42;100322.38;4822849;29;119530;-80
2022/02/25 07:01:51;;;;;;;9.15;1.80;;;;;;;9.52;63.39;100326.91;4811249;29;119652;-80
2022/02/25 07:04:16;;;;;;;9.00;1.80;;;;;;;9.45;61.86;100340.84;4813540;29;120214;-81
2022/02/25 07:06:43;;;;;;;7.15;1.70;;;;;;;9.38;61.11;100319.22;4807102;29;119889;-79
2022/02/25 07:09:08;;;;;;;5.90;1.60;;;;;;;9.36;61.62;100332.59;4838695;28;119883;-80
2022/02/25 07:11:34;;;;;;;7.68;1.73;;;;;;;9.25;62.04;100335.75;4819183;29;119533;-80
2022/02/25 07:14:00;;;;;;;8.70;2.08;;;;;;;9.17;63.31;100346.19;4808830;29;119994;-81
2022/02/25 07:16:25;;;;;;;5.43;1.70;;;;;;;9.15;63.64;100350.59;4828666;29;119416;-81
2022/02/25 07:18:51;;;;;;;6.10;1.50;;;;;;;9.18;64.18;100357.91;4799321;29;120971;-80
2022/02/25 07:21:16;;;;;;;6.80;2.20;;;;;;;9.20;63.82;100372.66;4810934;29;122101;-80
2022/02/25 07:23:42;;;;;;;8.32;1.52;;;;;;;9.17;62.91;100376.31;4797338;29;122625;-81
2022/02/25 07:26:08;;;;;;;5.85;1.70;;;;;;;9.16;63.80;100380.25;4809621;29;120364;-82
2022/02/25 07:28:34;;;;;;;5.50;1.52;;;;;;;9.06;62.45;100370.47;4806634;29;122316;-80
2022/02/25 07:31:00;;;;;;;6.93;1.60;;;;;;;9.15;63.65;100397.88;4826387;29;120602;-81
2022/02/25 07:33:25;;;;;;;5.85;1.35;;;;;;;9.10;62.74;100384.78;4820885;29;119527;-81
2022/02/25 07:35:53;;;;;;;4.63;1.10;;;;;;;9.02;62.15;100378.06;4825431;29;119607;-80
2022/02/25 07:38:24;;;;;;;4.40;1.10;;;;;;;8.68;63.58;100332.38;4844513;28;119813;-81
2022/02/25 07:40:53;;;;;;;4.45;1.42;;;;;;;8.56;62.27;100311.34;4821215;29;120997;-81
2022/02/25 07:43:26;;;;;;;2.67;1.10;;;;;;;8.83;61.46;100360.75;4823333;29;122823;-82
2022/02/25 07:45:52;;;;;;;4.03;1.10;;;;;;;8.56;61.62;100327.75;4811245;29;121400;-80
2022/02/25 07:48:21;;;;;;;5.50;0.90;;;;;;;8.53;61.74;100334.09;4823378;29;120722;-81
2022/02/25 07:50:59;;;;;;;;;;;;;;;;;;;;;
2022/02/25 07:53:35;;;;;;;;;;;;;;;;;;;;;
2022/02/25 07:56:05;;;;;;;6.03;1.23;;;;;;;8.76;61.68;100363.75;4810601;29;121723;-82
2022/02/25 07:58:36;;;;;;;12.75;1.73;;;;;;;8.74;61.23;100357.94;4842901;29;120231;-81
2022/02/25 08:01:05;;;;;;;;;;;;;;;8.89;61.49;100383.56;4818210;29;119440;-81
2022/02/25 08:03:43;;;;;;;;;;;;;;;;;;;;;
2022/02/25 08:06:16;;;;;;;5.00;1.20;;;;;;;8.59;61.16;100338.56;4813466;29;120133;-80
2022/02/25 08:08:45;;;;;;;5.45;1.10;;;;;;;8.50;61.41;100318.56;4813677;29;119418;-81
2022/02/25 08:11:16;;;;;;;5.65;1.35;;;;;;;8.48;61.37;100315.53;4828151;29;122663;-81
2022/02/25 08:13:45;;;;;;;6.97;1.65;;;;;;;8.58;62.07;100330.78;4811380;29;119378;-82
2022/02/25 08:16:16;;;;;;;8.13;1.15;;;;;;;8.52;61.82;100332.59;4812497;29;121551;-81
2022/02/25 08:18:45;;;;;;;7.50;1.75;;;;;;;8.55;61.86;100331.69;4827158;29;120169;-81
2022/02/25 08:21:14;;;;;;;7.97;2.13;;;;;;;8.46;61.90;100331.59;4842359;28;119810;-82
2022/02/25 08:23:40;;;;;;;6.40;1.58;;;;;;;8.52;61.37;100348.97;4845373;29;119846;-81
2022/02/25 08:26:06;;;;;;;7.93;2.03;;;;;;;8.52;62.14;100344.28;4843498;28;119733;-82
2022/02/25 08:28:34;;;;;;;6.22;1.27;;;;;;;8.38;62.37;100325.63;4809884;29;122521;-81
2022/02/25 08:31:12;;;;;;;7.15;1.40;;;;;;;8.70;61.46;100370.22;4826209;29;123049;-83
2022/02/25 08:33:48;;;;;;;7.75;1.60;;;;;;;8.30;61.08;100321.59;4827655;29;119656;-84
2022/02/25 08:36:24;;;;;;;;;;;;;;;;;;;;;
2022/02/25 08:38:50;;;;;;;11.73;1.90;;;;;;;8.21;62.63;100330.47;4825511;29;123158;-80
2022/02/25 08:41:19;;;;;;;13.55;2.63;;;;;;;8.59;62.96;100398.69;4812341;29;119410;-81
2022/02/25 08:44:02;;;;;;;;;;;;;;;;;;;;;
2022/02/25 08:46:51;;;;;;;12.05;2.40;;;;;;;8.58;62.96;100374.53;4823274;29;120504;-82
2022/02/25 08:49:17;;;;;;;12.55;2.55;;;;;;;8.48;62.99;100348.31;4794067;29;122550;-81
2022/02/25 08:51:48;;;;;;;13.88;2.63;;;;;;;8.44;63.35;100328.56;4824813;29;119376;-81
2022/02/25 08:54:16;;;;;;;12.60;3.00;;;;;;;8.76;63.62;100369.22;4841832;28;120253;-81
2022/02/25 08:56:45;;;;;;;18.80;3.22;;;;;;;8.83;63.11;100368.97;4811608;29;122264;-83
2022/02/25 08:59:18;;;;;;;18.20;3.75;;;;;;;8.77;63.98;100337.94;4825253;29;122072;-82
2022/02/25 09:01:46;;;;;;;19.80;3.55;;;;;;;8.90;64.70;100340.56;4828181;29;119383;-81
2022/02/25 09:04:13;;;;;;;22.48;3.58;;;;;;;9.00;64.57;100333.19;4827558;29;122672;-83
2022/02/25 09:06:42;;;;;;;16.35;3.80;;;;;;;9.25;65.30;100359.63;4844315;29;121069;-81
2022/02/25 09:09:08;;;;;;;19.00;3.72;;;;;;;9.18;64.96;100327.81;4819059;29;121939;-82
2022/02/25 09:11:36;;;;;;;16.90;2.80;;;;;;;9.80;64.94;100402.47;4799548;29;122986;-81
2022/02/25 09:14:07;;;;;;;14.75;2.40;;;;;;;9.62;63.70;100358.56;4829396;29;119528;-82
2022/02/25 09:16:33;;;;;;;10.90;2.55;;;;;;;9.50;63.49;100326.59;4828914;29;119657;-81
2022/02/25 09:19:02;;;;;;;12.52;2.38;;;;;;;9.78;62.95;100358.31;4815514;29;121266;-81
2022/02/25 09:21:30;;;;;;;12.75;2.28;;;;;;;9.91;64.88;100351.94;4804440;29;119493;-82
2022/02/25 09:24:01;;;;;;;13.10;2.50;;;;;;;10.12;63.94;100351.06;4832740;29;121918;-81
2022/02/25 09:26:27;;;;;;;12.23;2.00;;;;;;;10.03;62.38;100329.16;4796961;29;122989;-83
2022/02/25 09:28:57;;;;;;;12.15;2.15;;;;;;;10.45;63.32;100378.72;4815337;29;119919;-82
2022/02/25 09:31:26;;;;;;;12.80;2.67;;;;;;;10.17;64.18;100312.09;4808759;29;120147;-83
2022/02/25 09:33:58;;;;;;;9.93;2.15;;;;;;;10.65;63.24;100367.28;4810911;29;119845;-85
2022/02/25 09:36:23;;;;;;;9.73;2.10;;;;;;;10.50;63.08;100336.22;4812771;29;122378;-83
2022/02/25 09:39:01;;;;;;;8.90;1.92;;;;;;;10.57;62.43;100330.41;4781080;29;122885;-86
2022/02/25 09:41:27;;;;;;;8.85;1.80;;;;;;;10.87;62.82;100367.84;4809597;29;119732;-87
2022/02/25 09:43:59;;;;;;;9.52;1.73;;;;;;;10.86;63.44;100360.09;4795046;29;122262;-87
2022/02/25 09:46:25;;;;;;;8.95;1.70;;;;;;;10.84;61.59;100349.56;4795445;29;120861;-88
2022/02/25 09:48:51;;;;;;;9.93;1.50;;;;;;;10.68;60.74;100328.75;4780237;29;120253;-88
2022/02/25 09:51:19;;;;;;;8.43;1.70;;;;;;;10.87;60.82;100381.56;4801211;29;122090;-88
2022/02/25 09:53:55;;;;;;;8.88;1.63;;;;;;;10.81;61.14;100375.19;4795229;29;121679;-88
2022/02/25 09:56:31;;;;;;;10.15;2.00;;;;;;;10.42;61.13;100333.03;4810113;29;119846;-87
2022/02/25 09:58:57;;;;;;;9.80;1.90;;;;;;;10.35;61.02;100323.09;4782152;29;123027;-87
2022/02/25 10:01:36;;;;;;;11.27;2.22;;;;;;;10.68;62.29;100375.38;4797192;29;120156;-86
2022/02/25 10:04:22;;;;;;;11.77;2.28;;;;;;;10.77;62.16;100382.81;4793238;29;121305;-85
2022/02/25 10:06:49;;;;;;;14.45;2.35;;;;;;;10.86;61.55;100398.50;4793663;29;123458;-85
2022/02/25 10:09:32;;;;;;;12.23;2.40;;;;;;;10.87;61.70;100403.53;4798405;29;119500;-85
2022/02/25 10:12:14;;;;;;;19.25;2.85;;;;;;;10.51;63.29;100346.72;4815557;29;122638;-87
2022/02/25 10:14:48;;;;;;;13.18;2.72;;;;;;;10.87;63.13;100370.59;4815936;29;122847;-86
2022/02/25 10:17:21;;;;;;;11.68;2.53;;;;;;;10.94;62.17;100364.06;4798756;29;121814;-84
2022/02/25 10:19:52;;;;;;;11.43;2.35;;;;;;;10.91;62.20;100352.03;4777852;29;123379;-86
2022/02/25 10:22:33;;;;;;;11.35;2.17;;;;;;;11.09;62.59;100381.41;4810724;29;119981;-86
2022/02/25 10:25:21;;;;;;;11.47;2.60;;;;;;;11.06;62.31;100391.31;4799011;29;121485;-86
2022/02/25 10:27:55;;;;;;;14.38;2.53;;;;;;;11.16;61.73;100424.25;4810857;29;120408;-86
2022/02/25 10:30:24;;;;;;;11.05;2.47;;;;;;;11.31;62.41;100449.84;4812971;29;120376;-86
2022/02/25 10:33:02;;;;;;;11.88;2.28;;;;;;;11.27;61.20;100433.53;4795668;29;119568;-86
2022/02/25 10:35:40;;;;;;;15.57;2.47;;;;;;;11.30;61.32;100440.84;4796429;29;123144;-86
2022/02/25 10:38:17;;;;;;;11.10;2.47;;;;;;;11.19;60.14;100426.06;4813860;29;119790;-86
2022/02/25 10:40:51;;;;;;;12.88;2.30;;;;;;;10.92;61.00;100408.44;4810642;29;122570;-86
2022/02/25 10:43:22;;;;;;;13.85;2.20;;;;;;;11.17;60.78;100469.69;4798206;29;122121;-85
2022/02/25 10:45:53;;;;;;;16.88;2.65;;;;;;;10.85;61.94;100430.66;4792170;29;122114;-87
2022/02/25 10:48:31;;;;;;;14.52;2.65;;;;;;;10.68;60.62;100400.06;4794705;29;120817;-86
2022/02/25 10:51:05;;;;;;;10.32;2.38;;;;;;;10.92;61.14;100441.34;4827452;28;119841;-87
2022/02/25 10:53:47;;;;;;;12.70;2.58;;;;;;;10.96;62.28;100435.72;4807040;29;122876;-85
2022/02/25 10:56:16;;;;;;;17.70;2.78;;;;;;;11.36;62.69;100469.22;4793202;29;123355;-83
2022/02/25 10:58:49;;;;;;;13.45;2.20;;;;;;;11.61;63.30;100461.84;4809251;29;119821;-86
2022/02/25 11:01:18;;;;;;;9.75;2.47;;;;;;;11.50;63.54;100401.88;4803012;29;122628;-85
2022/02/25 11:04:08;;;;;;;12.48;1.85;;;;;;;11.89;62.22;100433.06;4800177;29;120095;-84
2022/02/25 11:06:43;;;;;;;10.02;2.00;;;;;;;12.17;63.23;100452.94;4808515;29;121307;-84
2022/02/25 11:09:09;;;;;;;8.50;1.90;;;;;;;12.02;61.97;100405.34;4794968;29;120135;-85
2022/02/25 11:11:35;;;;;;;12.25;2.30;;;;;;;12.19;61.38;100422.97;4792638;29;120526;-86
2022/02/25 11:14:08;;;;;;;9.10;1.90;;;;;;;12.44;59.86;100454.00;4809959;29;122099;-86
2022/02/25 11:16:39;;;;;;;11.45;2.03;;;;;;;12.36;60.28;100428.84;4810179;29;122968;-86
2022/02/25 11:19:07;;;;;;;10.27;2.00;;;;;;;12.57;59.74;100463.53;4808660;29;122513;-84
2022/02/25 11:21:38;;;;;;;8.27;2.13;;;;;;;12.70;59.68;100479.78;4792159;29;124014;-85
2022/02/25 11:24:05;;;;;;;7.78;1.75;;;;;;;12.43;58.28;100458.72;4827869;29;120587;-86
2022/02/25 11:26:31;;;;;;;12.68;2.13;;;;;;;12.53;59.68;100482.19;4801410;29;122114;-84
2022/02/25 11:29:01;;;;;;;9.77;2.30;;;;;;;12.37;60.39;100460.59;4799237;29;122685;-85
2022/02/25 11:31:35;;;;;;;7.88;2.17;;;;;;;12.65;59.25;100510.72;4808667;29;120777;-85
2022/02/25 11:34:02;;;;;;;11.88;2.00;;;;;;;12.52;57.98;100490.91;4808891;29;122501;-86